BAW252 MBPV-MYNN
Flight info
| Callsign | BAW252 |
|---|---|
| Flight time | 0h 54m |
| Altitude | 40000 |
| Route | SEAAN |
| Aircraft | A332/H-SDE3GHIJ2J3J5M1RVWXY/LB2D1 |
Departure
| Time | 2026-05-07 14:20 |
|---|---|
| Airport | Providenciales International Airport (MBPV) |
Arrival
| Time | 2026-05-07 15:15 |
|---|---|
| Airport | Lynden Pindling International Airport (MYNN) |
| Time | Latitude | Longitude | Altitude | Speed | Heading |
|---|---|---|---|---|---|
| 2026-05-07 14:15 | 21.77463 | -72.25970 | 9 ft | 0 kts | 189° |
| 2026-05-07 14:19 | 21.77462 | -72.25971 | 9 ft | 1 kts | 189° |
| 2026-05-07 14:19 | 21.77440 | -72.25974 | 9 ft | 5 kts | 189° |
| 2026-05-07 14:19 | 21.77393 | -72.25977 | 9 ft | 9 kts | 180° |
| 2026-05-07 14:20 | 21.77346 | -72.25991 | 9 ft | 2 kts | 232° |
| 2026-05-07 14:20 | 21.77340 | -72.26109 | 9 ft | 43 kts | 271° |
| 2026-05-07 14:20 | 21.77362 | -72.26840 | 15 ft | 152 kts | 273° |
| 2026-05-07 14:20 | 21.77570 | -72.28198 | 659 ft | 218 kts | 292° |
| 2026-05-07 14:21 | 21.78524 | -72.29693 | 1836 ft | 262 kts | 308° |
| 2026-05-07 14:21 | 21.79693 | -72.31360 | 3242 ft | 290 kts | 304° |
| 2026-05-07 14:21 | 21.80832 | -72.33156 | 5218 ft | 287 kts | 305° |
| 2026-05-07 14:21 | 21.81941 | -72.34892 | 7324 ft | 278 kts | 304° |
| 2026-05-07 14:22 | 21.83029 | -72.36584 | 9055 ft | 281 kts | 305° |
| 2026-05-07 14:22 | 21.84157 | -72.38328 | 10549 ft | 288 kts | 305° |
| 2026-05-07 14:22 | 21.85354 | -72.40174 | 11441 ft | 317 kts | 304° |
| 2026-05-07 14:22 | 21.86688 | -72.42227 | 11956 ft | 353 kts | 304° |
| 2026-05-07 14:23 | 21.88149 | -72.44474 | 12771 ft | 376 kts | 304° |
| 2026-05-07 14:23 | 21.89665 | -72.46805 | 14019 ft | 383 kts | 304° |
| 2026-05-07 14:23 | 21.91204 | -72.49171 | 15191 ft | 389 kts | 305° |
| 2026-05-07 14:23 | 21.92776 | -72.51588 | 16177 ft | 400 kts | 306° |
| 2026-05-07 14:24 | 21.94397 | -72.54081 | 17056 ft | 412 kts | 306° |
| 2026-05-07 14:24 | 21.96030 | -72.56595 | 18012 ft | 419 kts | 306° |
| 2026-05-07 14:24 | 21.97717 | -72.59193 | 18884 ft | 426 kts | 307° |
| 2026-05-07 14:24 | 21.99421 | -72.61819 | 19814 ft | 429 kts | 307° |
| 2026-05-07 14:25 | 22.01128 | -72.64454 | 20779 ft | 430 kts | 308° |
| 2026-05-07 14:25 | 22.02841 | -72.67097 | 21683 ft | 431 kts | 308° |
| 2026-05-07 14:25 | 22.04562 | -72.69755 | 22573 ft | 433 kts | 308° |
| 2026-05-07 14:25 | 22.06292 | -72.72426 | 23410 ft | 436 kts | 308° |
| 2026-05-07 14:26 | 22.08031 | -72.75114 | 24130 ft | 439 kts | 308° |
| 2026-05-07 14:26 | 22.09788 | -72.77829 | 24730 ft | 443 kts | 308° |
| 2026-05-07 14:26 | 22.11536 | -72.80534 | 25302 ft | 448 kts | 308° |
| 2026-05-07 14:26 | 22.13325 | -72.83303 | 25890 ft | 452 kts | 308° |
| 2026-05-07 14:27 | 22.15129 | -72.86096 | 26474 ft | 456 kts | 308° |
| 2026-05-07 14:27 | 22.16947 | -72.88913 | 27051 ft | 459 kts | 308° |
| 2026-05-07 14:27 | 22.18781 | -72.91756 | 27623 ft | 463 kts | 308° |
| 2026-05-07 14:27 | 22.20627 | -72.94620 | 28183 ft | 466 kts | 308° |
| 2026-05-07 14:28 | 22.22483 | -72.97501 | 28707 ft | 470 kts | 308° |
| 2026-05-07 14:28 | 22.24360 | -73.00415 | 29230 ft | 474 kts | 308° |
| 2026-05-07 14:28 | 22.26218 | -73.03302 | 29706 ft | 477 kts | 307° |
| 2026-05-07 14:28 | 22.28118 | -73.06255 | 30182 ft | 480 kts | 307° |
| 2026-05-07 14:29 | 22.30020 | -73.09215 | 30665 ft | 480 kts | 307° |
| 2026-05-07 14:29 | 22.31921 | -73.12174 | 31294 ft | 478 kts | 307° |
| 2026-05-07 14:29 | 22.33810 | -73.15117 | 31890 ft | 476 kts | 307° |
| 2026-05-07 14:29 | 22.35695 | -73.18054 | 32390 ft | 476 kts | 307° |
| 2026-05-07 14:30 | 22.37584 | -73.20997 | 32742 ft | 478 kts | 307° |
| 2026-05-07 14:30 | 22.39477 | -73.23950 | 33159 ft | 478 kts | 307° |
| 2026-05-07 14:30 | 22.41369 | -73.26903 | 33633 ft | 477 kts | 307° |
| 2026-05-07 14:30 | 22.43232 | -73.29812 | 34118 ft | 476 kts | 307° |
| 2026-05-07 14:31 | 22.45111 | -73.32748 | 34560 ft | 475 kts | 307° |
| 2026-05-07 14:31 | 22.46984 | -73.35676 | 35034 ft | 472 kts | 307° |
| 2026-05-07 14:31 | 22.48849 | -73.38593 | 35510 ft | 470 kts | 307° |
| 2026-05-07 14:31 | 22.50705 | -73.41498 | 35984 ft | 468 kts | 307° |
| 2026-05-07 14:32 | 22.52549 | -73.44385 | 36462 ft | 466 kts | 307° |
| 2026-05-07 14:32 | 22.54383 | -73.47259 | 36931 ft | 464 kts | 307° |
| 2026-05-07 14:32 | 22.56212 | -73.50125 | 37418 ft | 462 kts | 308° |
| 2026-05-07 14:32 | 22.58008 | -73.52943 | 37903 ft | 459 kts | 308° |
| 2026-05-07 14:33 | 22.59813 | -73.55776 | 38407 ft | 456 kts | 308° |
| 2026-05-07 14:33 | 22.61610 | -73.58596 | 38838 ft | 455 kts | 308° |
| 2026-05-07 14:33 | 22.63402 | -73.61410 | 39201 ft | 454 kts | 308° |
| 2026-05-07 14:33 | 22.65191 | -73.64222 | 39503 ft | 453 kts | 308° |
| 2026-05-07 14:34 | 22.66977 | -73.67030 | 39822 ft | 453 kts | 307° |
| 2026-05-07 14:34 | 22.68760 | -73.69835 | 40157 ft | 452 kts | 307° |
| 2026-05-07 14:34 | 22.70540 | -73.72638 | 40479 ft | 451 kts | 307° |
| 2026-05-07 14:34 | 22.72291 | -73.75394 | 40791 ft | 450 kts | 307° |
| 2026-05-07 14:35 | 22.74061 | -73.78184 | 41094 ft | 449 kts | 307° |
| 2026-05-07 14:35 | 22.77590 | -73.83750 | 41096 ft | 448 kts | 307° |
| 2026-05-07 14:36 | 22.81121 | -73.89323 | 41085 ft | 449 kts | 307° |
| 2026-05-07 14:36 | 22.84654 | -73.94907 | 41084 ft | 449 kts | 307° |
| 2026-05-07 14:37 | 22.88164 | -74.00460 | 41078 ft | 449 kts | 307° |
| 2026-05-07 14:37 | 22.93456 | -74.08845 | 41092 ft | 449 kts | 307° |
| 2026-05-07 14:38 | 22.96980 | -74.14435 | 41094 ft | 448 kts | 307° |
| 2026-05-07 14:38 | 23.00494 | -74.20016 | 41093 ft | 448 kts | 307° |
| 2026-05-07 14:39 | 23.03983 | -74.25562 | 41096 ft | 448 kts | 307° |
| 2026-05-07 14:39 | 23.07492 | -74.31147 | 41095 ft | 448 kts | 307° |
| 2026-05-07 14:40 | 23.11001 | -74.36737 | 41088 ft | 448 kts | 307° |
| 2026-05-07 14:40 | 23.14506 | -74.42327 | 41089 ft | 448 kts | 307° |
| 2026-05-07 14:41 | 23.17992 | -74.47894 | 41091 ft | 448 kts | 306° |
| 2026-05-07 14:41 | 23.21500 | -74.53500 | 41091 ft | 448 kts | 306° |
| 2026-05-07 14:42 | 23.25004 | -74.59107 | 41091 ft | 448 kts | 306° |
| 2026-05-07 14:42 | 23.28506 | -74.64718 | 41089 ft | 448 kts | 306° |
| 2026-05-07 14:43 | 23.31985 | -74.70297 | 41089 ft | 448 kts | 306° |
| 2026-05-07 14:43 | 23.35478 | -74.75905 | 41087 ft | 447 kts | 306° |
| 2026-05-07 14:44 | 23.38965 | -74.81509 | 41094 ft | 447 kts | 306° |
| 2026-05-07 14:44 | 23.42453 | -74.87120 | 41088 ft | 447 kts | 306° |
| 2026-05-07 14:45 | 23.45937 | -74.92733 | 41095 ft | 447 kts | 306° |
| 2026-05-07 14:45 | 23.49397 | -74.98312 | 41095 ft | 447 kts | 306° |
| 2026-05-07 14:46 | 23.52879 | -75.03932 | 41093 ft | 447 kts | 306° |
| 2026-05-07 14:46 | 23.56361 | -75.09560 | 41092 ft | 448 kts | 306° |
| 2026-05-07 14:47 | 23.59843 | -75.15192 | 41091 ft | 448 kts | 306° |
| 2026-05-07 14:47 | 23.63322 | -75.20828 | 41091 ft | 448 kts | 306° |
| 2026-05-07 14:48 | 23.66780 | -75.26435 | 41091 ft | 448 kts | 306° |
| 2026-05-07 14:48 | 23.70254 | -75.32074 | 41089 ft | 448 kts | 306° |
| 2026-05-07 14:49 | 23.73723 | -75.37713 | 41087 ft | 447 kts | 306° |
| 2026-05-07 14:49 | 23.77188 | -75.43349 | 41087 ft | 447 kts | 306° |
| 2026-05-07 14:50 | 23.80623 | -75.48944 | 41091 ft | 447 kts | 305° |
| 2026-05-07 14:50 | 23.84086 | -75.54591 | 41079 ft | 446 kts | 305° |
| 2026-05-07 14:51 | 23.85799 | -75.57388 | 40797 ft | 441 kts | 305° |
| 2026-05-07 14:51 | 23.87503 | -75.60170 | 40184 ft | 440 kts | 305° |
| 2026-05-07 14:51 | 23.89207 | -75.62953 | 39480 ft | 442 kts | 305° |
| 2026-05-07 14:51 | 23.90896 | -75.65715 | 38754 ft | 444 kts | 305° |
| 2026-05-07 14:52 | 23.92613 | -75.68521 | 37883 ft | 446 kts | 305° |
| 2026-05-07 14:52 | 23.94342 | -75.71350 | 36940 ft | 449 kts | 305° |
| 2026-05-07 14:52 | 23.96082 | -75.74200 | 36233 ft | 449 kts | 305° |
| 2026-05-07 14:52 | 23.97795 | -75.77007 | 35881 ft | 440 kts | 305° |
| 2026-05-07 14:53 | 23.99477 | -75.79767 | 35531 ft | 432 kts | 305° |
| 2026-05-07 14:53 | 24.01126 | -75.82472 | 35191 ft | 425 kts | 305° |
| 2026-05-07 14:53 | 24.02758 | -75.85151 | 34840 ft | 422 kts | 305° |
| 2026-05-07 14:53 | 24.04393 | -75.87834 | 34470 ft | 425 kts | 304° |
| 2026-05-07 14:54 | 24.06020 | -75.90505 | 33688 ft | 430 kts | 304° |
| 2026-05-07 14:54 | 24.07684 | -75.93241 | 32794 ft | 433 kts | 305° |
| 2026-05-07 14:54 | 24.09353 | -75.95986 | 31968 ft | 434 kts | 305° |
| 2026-05-07 14:54 | 24.11027 | -75.98740 | 31118 ft | 435 kts | 305° |
| 2026-05-07 14:55 | 24.12705 | -76.01503 | 30229 ft | 437 kts | 305° |
| 2026-05-07 14:55 | 24.14391 | -76.04280 | 29190 ft | 439 kts | 305° |
| 2026-05-07 14:55 | 24.16083 | -76.07069 | 28212 ft | 439 kts | 305° |
| 2026-05-07 14:55 | 24.17770 | -76.09853 | 27592 ft | 437 kts | 305° |
| 2026-05-07 14:56 | 24.19423 | -76.12580 | 26975 ft | 435 kts | 305° |
| 2026-05-07 14:56 | 24.21088 | -76.15331 | 26306 ft | 431 kts | 305° |
| 2026-05-07 14:56 | 24.22736 | -76.18054 | 25642 ft | 427 kts | 305° |
| 2026-05-07 14:56 | 24.24371 | -76.20757 | 24968 ft | 424 kts | 305° |
| 2026-05-07 14:57 | 24.25993 | -76.23440 | 24311 ft | 420 kts | 305° |
| 2026-05-07 14:57 | 24.27599 | -76.26096 | 23642 ft | 417 kts | 305° |
| 2026-05-07 14:57 | 24.29192 | -76.28735 | 22866 ft | 413 kts | 305° |
| 2026-05-07 14:57 | 24.30771 | -76.31352 | 22199 ft | 409 kts | 306° |
| 2026-05-07 14:58 | 24.32334 | -76.33942 | 21526 ft | 406 kts | 306° |
| 2026-05-07 14:58 | 24.33868 | -76.36485 | 20874 ft | 403 kts | 306° |
| 2026-05-07 14:58 | 24.35408 | -76.39040 | 20205 ft | 400 kts | 306° |
| 2026-05-07 14:58 | 24.36938 | -76.41580 | 19550 ft | 397 kts | 306° |
| 2026-05-07 14:59 | 24.38454 | -76.44098 | 18903 ft | 395 kts | 306° |
| 2026-05-07 14:59 | 24.39961 | -76.46604 | 18240 ft | 392 kts | 306° |
| 2026-05-07 14:59 | 24.41457 | -76.49089 | 17538 ft | 389 kts | 306° |
| 2026-05-07 14:59 | 24.42943 | -76.51560 | 16890 ft | 388 kts | 305° |
| 2026-05-07 15:00 | 24.44408 | -76.53998 | 16261 ft | 388 kts | 305° |
| 2026-05-07 15:00 | 24.45891 | -76.56466 | 15614 ft | 387 kts | 305° |
| 2026-05-07 15:00 | 24.47372 | -76.58933 | 14965 ft | 387 kts | 305° |
| 2026-05-07 15:00 | 24.48851 | -76.61399 | 14326 ft | 387 kts | 305° |
| 2026-05-07 15:01 | 24.50331 | -76.63866 | 13642 ft | 386 kts | 304° |
| 2026-05-07 15:01 | 24.51804 | -76.66323 | 12944 ft | 384 kts | 304° |
| 2026-05-07 15:01 | 24.53259 | -76.68753 | 12285 ft | 378 kts | 304° |
| 2026-05-07 15:01 | 24.54689 | -76.71143 | 11653 ft | 372 kts | 304° |
| 2026-05-07 15:02 | 24.56074 | -76.73458 | 11281 ft | 358 kts | 304° |
| 2026-05-07 15:02 | 24.57395 | -76.75669 | 11218 ft | 335 kts | 304° |
| 2026-05-07 15:02 | 24.58633 | -76.77744 | 11131 ft | 316 kts | 304° |
| 2026-05-07 15:02 | 24.59809 | -76.79711 | 10990 ft | 301 kts | 304° |
| 2026-05-07 15:03 | 24.60934 | -76.81595 | 10856 ft | 290 kts | 304° |
| 2026-05-07 15:03 | 24.62020 | -76.83413 | 10720 ft | 280 kts | 304° |
| 2026-05-07 15:03 | 24.63081 | -76.85190 | 10466 ft | 277 kts | 304° |
| 2026-05-07 15:03 | 24.64138 | -76.86959 | 10090 ft | 276 kts | 304° |
| 2026-05-07 15:04 | 24.65190 | -76.88720 | 9737 ft | 275 kts | 304° |
| 2026-05-07 15:04 | 24.66220 | -76.90446 | 9405 ft | 273 kts | 304° |
| 2026-05-07 15:04 | 24.67255 | -76.92182 | 9087 ft | 271 kts | 303° |
| 2026-05-07 15:04 | 24.68283 | -76.93907 | 8759 ft | 268 kts | 303° |
| 2026-05-07 15:05 | 24.69301 | -76.95615 | 8425 ft | 266 kts | 303° |
| 2026-05-07 15:05 | 24.70308 | -76.97306 | 8106 ft | 264 kts | 302° |
| 2026-05-07 15:05 | 24.71311 | -76.98991 | 7775 ft | 263 kts | 302° |
| 2026-05-07 15:05 | 24.72309 | -77.00668 | 7469 ft | 261 kts | 302° |
| 2026-05-07 15:06 | 24.73300 | -77.02335 | 7141 ft | 260 kts | 302° |
| 2026-05-07 15:06 | 24.74286 | -77.03994 | 6819 ft | 258 kts | 302° |
| 2026-05-07 15:06 | 24.75252 | -77.05618 | 6500 ft | 256 kts | 301° |
| 2026-05-07 15:06 | 24.76226 | -77.07256 | 6163 ft | 255 kts | 301° |
| 2026-05-07 15:07 | 24.77195 | -77.08886 | 5839 ft | 254 kts | 301° |
| 2026-05-07 15:07 | 24.78160 | -77.10512 | 5512 ft | 253 kts | 301° |
| 2026-05-07 15:07 | 24.79120 | -77.12129 | 5206 ft | 252 kts | 301° |
| 2026-05-07 15:07 | 24.80075 | -77.13739 | 4884 ft | 251 kts | 301° |
| 2026-05-07 15:08 | 24.81026 | -77.15342 | 4552 ft | 250 kts | 301° |
| 2026-05-07 15:08 | 24.81973 | -77.16938 | 4221 ft | 249 kts | 301° |
| 2026-05-07 15:08 | 24.82920 | -77.18536 | 3917 ft | 250 kts | 301° |
| 2026-05-07 15:08 | 24.83867 | -77.20135 | 3600 ft | 249 kts | 301° |
| 2026-05-07 15:09 | 24.84799 | -77.21709 | 3285 ft | 249 kts | 301° |
| 2026-05-07 15:09 | 24.85744 | -77.23306 | 2960 ft | 249 kts | 301° |
| 2026-05-07 15:09 | 24.86685 | -77.24895 | 2634 ft | 247 kts | 301° |
| 2026-05-07 15:09 | 24.87620 | -77.26474 | 2307 ft | 246 kts | 301° |
| 2026-05-07 15:10 | 24.88576 | -77.28092 | 2115 ft | 259 kts | 301° |
| 2026-05-07 15:10 | 24.89569 | -77.29771 | 2103 ft | 262 kts | 301° |
| 2026-05-07 15:10 | 24.90603 | -77.31333 | 2112 ft | 243 kts | 309° |
| 2026-05-07 15:10 | 24.91696 | -77.32613 | 2147 ft | 214 kts | 313° |
| 2026-05-07 15:11 | 24.92661 | -77.33677 | 2125 ft | 186 kts | 313° |
| 2026-05-07 15:11 | 24.93523 | -77.34620 | 2122 ft | 166 kts | 313° |
| 2026-05-07 15:11 | 24.94321 | -77.35497 | 2116 ft | 160 kts | 313° |
| 2026-05-07 15:11 | 24.95102 | -77.36360 | 2118 ft | 158 kts | 313° |
| 2026-05-07 15:12 | 24.95847 | -77.37183 | 2115 ft | 142 kts | 313° |
| 2026-05-07 15:12 | 24.96503 | -77.37903 | 2081 ft | 128 kts | 313° |
| 2026-05-07 15:12 | 24.97125 | -77.38592 | 1947 ft | 126 kts | 311° |
| 2026-05-07 15:12 | 24.97741 | -77.39278 | 1724 ft | 126 kts | 313° |
| 2026-05-07 15:13 | 24.98352 | -77.39959 | 1717 ft | 125 kts | 311° |
| 2026-05-07 15:13 | 24.98969 | -77.40646 | 1589 ft | 126 kts | 313° |
| 2026-05-07 15:13 | 24.99584 | -77.41313 | 1344 ft | 127 kts | 312° |
| 2026-05-07 15:13 | 25.00201 | -77.42009 | 1052 ft | 127 kts | 311° |
| 2026-05-07 15:14 | 25.00831 | -77.42736 | 652 ft | 136 kts | 313° |
| 2026-05-07 15:14 | 25.01465 | -77.43454 | 429 ft | 127 kts | 315° |
| 2026-05-07 15:14 | 25.02068 | -77.44119 | 264 ft | 120 kts | 315° |
| 2026-05-07 15:14 | 25.02644 | -77.44762 | 125 ft | 117 kts | 316° |
| 2026-05-07 15:15 | 25.03216 | -77.45400 | 24 ft | 116 kts | 317° |
| 2026-05-07 15:15 | 25.03696 | -77.45917 | 17 ft | 63 kts | 315° |
| 2026-05-07 15:15 | 25.03814 | -77.46067 | 17 ft | 6 kts | 342° |
| 2026-05-07 15:15 | 25.03817 | -77.46042 | 17 ft | 9 kts | 121° |
| 2026-05-07 15:16 | 25.03780 | -77.45935 | 17 ft | 13 kts | 71° |
| 2026-05-07 15:16 | 25.03853 | -77.45874 | 16 ft | 10 kts | 2° |
| 2026-05-07 15:16 | 25.03981 | -77.45972 | 16 ft | 31 kts | 317° |
| 2026-05-07 15:16 | 25.04139 | -77.46143 | 17 ft | 29 kts | 325° |
| 2026-05-07 15:17 | 25.04241 | -77.46109 | 15 ft | 7 kts | 20° |
| 2026-05-07 15:17 | 25.04247 | -77.46111 | 15 ft | 0 kts | 347° |